Time;durP1;ratioP1;P1;durP2;ratioP2;P2;SDS_P1;SDS_P2;PMS_P1;PMS_P2;Temp;Humidity;BMP_temperature;BMP_pressure;BME280_temperature;BME280_humidity;BME280_pressure;Samples;Min_cycle;Max_cycle;Signal;HPM_P1;HPM_P2
2022/08/26 00:00:18;;;;;;;52.57;48.10;;;25.80;57.80;;;;;;5077518;28;20452;-64
2022/08/26 00:02:45;;;;;;;55.10;50.40;;;25.80;58.50;;;;;;5077950;28;20488;-64
2022/08/26 00:05:12;;;;;;;57.77;52.63;;;25.70;58.90;;;;;;5077655;28;20946;-64
2022/08/26 00:07:41;;;;;;;51.00;46.60;;;25.70;59.70;;;;;;5078187;28;20808;-64
2022/08/26 00:10:08;;;;;;;54.27;49.67;;;25.60;59.90;;;;;;5077675;28;20475;-64
2022/08/26 00:12:35;;;;;;;56.13;51.10;;;25.60;60.40;;;;;;5078292;28;20464;-65
2022/08/26 00:15:02;;;;;;;56.53;51.50;;;25.60;60.80;;;;;;5078137;28;20455;-64
2022/08/26 00:17:29;;;;;;;64.80;58.63;;;25.50;61.40;;;;;;5077275;28;20445;-64
2022/08/26 00:19:56;;;;;;;67.63;61.37;;;25.40;62.70;;;;;;5077883;28;20448;-64
2022/08/26 00:22:23;;;;;;;67.87;61.90;;;25.30;64.10;;;;;;5077285;28;20489;-64
2022/08/26 00:24:51;;;;;;;68.90;62.50;;;25.20;65.20;;;;;;5076726;28;20456;-64
2022/08/26 00:27:18;;;;;;;68.07;61.80;;;25.20;65.70;;;;;;5076857;28;20456;-64
2022/08/26 00:29:44;;;;;;;68.07;62.07;;;25.10;66.90;;;;;;5076805;28;20813;-64
2022/08/26 00:32:11;;;;;;;72.70;66.50;;;25.00;67.40;;;;;;5076473;28;20827;-64
2022/08/26 00:34:38;;;;;;;70.40;63.70;;;24.90;67.90;;;;;;5076168;28;20944;-64
2022/08/26 00:37:05;;;;;;;70.83;64.63;;;24.90;68.50;;;;;;5076469;28;20501;-64
2022/08/26 00:39:32;;;;;;;72.03;65.63;;;24.90;69.30;;;;;;5075887;28;20821;-64
2022/08/26 00:42:01;;;;;;;71.97;65.30;;;24.80;69.90;;;;;;5076366;28;20488;-64
2022/08/26 00:44:27;;;;;;;72.53;65.73;;;24.70;70.50;;;;;;5076784;28;20548;-64
2022/08/26 00:46:59;;;;;;;74.37;67.20;;;24.70;71.20;;;;;;5076903;28;20445;-64
2022/08/26 00:49:34;;;;;;;72.70;66.20;;;24.60;71.70;;;;;;5077132;28;20429;-64
2022/08/26 00:52:05;;;;;;;76.57;69.27;;;24.60;72.30;;;;;;5076273;28;20465;-64
2022/08/26 00:54:39;;;;;;;74.70;68.00;;;24.60;72.70;;;;;;5076962;28;20425;-64
2022/08/26 00:57:12;;;;;;;73.07;66.70;;;24.50;73.70;;;;;;5075846;28;20437;-64
2022/08/26 00:59:40;;;;;;;73.13;65.93;;;24.50;73.90;;;;;;5076388;28;20433;-64
2022/08/26 01:02:07;;;;;;;73.30;66.90;;;24.50;74.70;;;;;;5075806;28;21009;-64
2022/08/26 01:04:36;;;;;;;71.60;64.77;;;24.40;75.20;;;;;;5076188;28;20449;-63
2022/08/26 01:07:04;;;;;;;70.73;64.43;;;24.30;76.10;;;;;;5076146;28;20479;-63
2022/08/26 01:09:32;;;;;;;74.00;67.10;;;24.30;76.20;;;;;;5075963;28;20960;-63
2022/08/26 01:12:01;;;;;;;71.77;64.87;;;24.20;77.10;;;;;;5076059;28;20457;-64
2022/08/26 01:14:34;;;;;;;68.47;62.57;;;24.20;77.80;;;;;;5076595;28;20449;-64
2022/08/26 01:17:03;;;;;;;68.20;61.97;;;24.20;78.20;;;;;;5077042;28;20444;-63
2022/08/26 01:19:36;;;;;;;67.87;61.40;;;24.10;78.30;;;;;;5076240;28;20445;-64
2022/08/26 01:22:08;;;;;;;66.13;60.03;;;24.10;78.60;;;;;;5075988;28;20489;-64
2022/08/26 01:24:37;;;;;;;67.40;61.40;;;24.20;79.10;;;;;;5075600;28;20961;-64
2022/08/26 01:27:07;;;;;;;62.33;56.57;;;24.10;79.30;;;;;;5075927;28;20451;-64
2022/08/26 01:29:37;;;;;;;64.63;58.20;;;24.10;79.30;;;;;;5076116;28;20452;-64
2022/08/26 01:32:08;;;;;;;61.60;56.43;;;24.10;79.80;;;;;;5075940;28;20479;-64
2022/08/26 01:34:38;;;;;;;61.23;55.30;;;24.10;80.00;;;;;;5075852;28;20434;-67
2022/08/26 01:37:10;;;;;;;58.80;53.50;;;24.00;79.80;;;;;;5073444;28;20456;-67
2022/08/26 01:39:39;;;;;;;53.60;48.77;;;24.00;80.40;;;;;;5072949;28;20444;-68
2022/08/26 01:42:09;;;;;;;57.93;52.63;;;24.00;80.30;;;;;;5073249;28;20511;-68
2022/08/26 01:44:44;;;;;;;60.07;54.90;;;23.90;81.00;;;;;;5073534;28;20452;-68
2022/08/26 01:47:13;;;;;;;58.53;53.13;;;23.90;81.30;;;;;;5073615;28;20430;-68
2022/08/26 01:49:43;;;;;;;54.60;49.70;;;23.90;81.80;;;;;;5073309;28;20448;-69
2022/08/26 01:52:12;;;;;;;49.80;45.30;;;23.90;82.00;;;;;;5073142;28;20472;-68
2022/08/26 01:54:40;;;;;;;51.20;46.77;;;23.80;81.90;;;;;;5073180;28;20457;-68
2022/08/26 01:57:07;;;;;;;50.40;45.37;;;23.80;82.10;;;;;;5073173;28;20449;-68
2022/08/26 01:59:35;;;;;;;51.17;46.60;;;23.80;81.90;;;;;;5073252;28;20881;-68
2022/08/26 02:02:02;;;;;;;50.87;46.33;;;23.80;82.50;;;;;;5072908;28;20461;-69
2022/08/26 02:04:33;;;;;;;48.37;44.40;;;23.70;83.10;;;;;;5072848;28;20444;-68
2022/08/26 02:07:03;;;;;;;50.70;45.80;;;23.60;83.90;;;;;;5072894;28;20844;-68
2022/08/26 02:09:30;;;;;;;47.13;42.90;;;23.60;84.10;;;;;;5073312;28;20449;-69
2022/08/26 02:11:59;;;;;;;47.97;43.63;;;23.60;84.20;;;;;;5076955;28;20556;-68
2022/08/26 02:14:33;;;;;;;44.97;41.13;;;23.70;84.50;;;;;;5076707;28;20480;-68
2022/08/26 02:16:59;;;;;;;45.30;41.00;;;23.70;84.60;;;;;;5076994;28;20464;-68
2022/08/26 02:19:31;;;;;;;44.57;40.60;;;23.60;85.00;;;;;;5076913;28;20484;-68
2022/08/26 02:22:00;;;;;;;46.07;41.73;;;23.60;85.40;;;;;;5076784;28;20425;-68
2022/08/26 02:24:29;;;;;;;45.20;40.70;;;23.60;85.90;;;;;;5076594;28;20452;-68
2022/08/26 02:26:58;;;;;;;45.63;41.53;;;23.60;86.10;;;;;;5076846;28;20460;-68
2022/08/26 02:29:35;;;;;;;44.57;40.17;;;23.60;86.50;;;;;;5077090;28;20449;-68
2022/08/26 02:32:02;;;;;;;42.07;37.97;;;23.60;86.60;;;;;;5076926;28;20549;-68
2022/08/26 02:34:30;;;;;;;44.17;40.20;;;23.50;87.00;;;;;;5076740;28;20444;-68
2022/08/26 02:36:58;;;;;;;44.17;40.00;;;23.60;87.40;;;;;;5076752;28;20513;-68
2022/08/26 02:39:25;;;;;;;42.57;38.60;;;23.50;87.80;;;;;;5076352;28;20452;-68
2022/08/26 02:41:51;;;;;;;39.57;35.60;;;23.60;87.70;;;;;;5076500;28;20445;-68
2022/08/26 02:44:20;;;;;;;38.27;34.70;;;23.60;87.70;;;;;;5076026;28;20856;-68
2022/08/26 02:46:46;;;;;;;38.23;34.70;;;23.60;87.50;;;;;;5076489;28;20445;-68
2022/08/26 02:49:13;;;;;;;39.77;35.83;;;23.60;87.80;;;;;;5076229;28;20445;-68
2022/08/26 02:51:40;;;;;;;39.10;35.17;;;23.60;87.80;;;;;;5076763;28;20452;-68
2022/08/26 02:54:08;;;;;;;37.83;34.10;;;23.60;88.00;;;;;;5076266;28;20480;-68
2022/08/26 02:56:35;;;;;;;37.07;33.33;;;23.60;88.00;;;;;;5076333;28;20547;-68
2022/08/26 02:59:02;;;;;;;33.50;30.57;;;23.60;88.30;;;;;;5076099;28;20444;-68
2022/08/26 03:01:32;;;;;;;34.10;30.80;;;23.60;87.90;;;;;;5076198;28;20441;-68
2022/08/26 03:03:59;;;;;;;35.63;32.30;;;23.60;88.20;;;;;;5075988;28;20831;-68
2022/08/26 03:06:27;;;;;;;32.87;29.83;;;23.70;88.30;;;;;;5076209;28;20445;-68
2022/08/26 03:08:54;;;;;;;33.50;30.03;;;23.70;88.00;;;;;;5075376;28;20452;-68
2022/08/26 03:11:22;;;;;;;30.40;27.77;;;23.70;87.80;;;;;;5075969;28;20500;-68
2022/08/26 03:13:49;;;;;;;32.30;29.27;;;23.80;87.50;;;;;;5075918;28;20483;-68
2022/08/26 03:16:17;;;;;;;31.00;28.10;;;23.80;87.10;;;;;;5075920;28;20452;-68
2022/08/26 03:18:45;;;;;;;31.77;28.47;;;23.90;86.80;;;;;;5075787;28;20456;-69
2022/08/26 03:21:14;;;;;;;29.97;27.37;;;23.90;87.10;;;;;;5074832;28;20478;-68
2022/08/26 03:23:42;;;;;;;30.53;27.87;;;23.90;87.20;;;;;;5074826;28;20497;-68
2022/08/26 03:26:10;;;;;;;30.23;27.60;;;23.80;87.20;;;;;;5075421;28;20440;-68
2022/08/26 03:30:38;;;;;;;27.97;25.23;;;23.80;87.30;;;;;;5075639;28;20445;-68
2022/08/26 03:31:24;;;;;;;28.33;25.73;;;23.80;87.20;;;;;;5075308;28;20491;-68
2022/08/26 03:33:52;;;;;;;26.27;23.70;;;23.80;87.30;;;;;;5075408;28;20507;-68
2022/08/26 03:36:20;;;;;;;26.57;24.13;;;23.80;87.20;;;;;;5075424;28;20445;-68
2022/08/26 03:38:46;;;;;;;26.80;23.80;;;23.80;87.10;;;;;;5075507;28;20451;-68
2022/08/26 03:41:14;;;;;;;25.30;23.00;;;23.90;87.10;;;;;;5075475;28;20456;-68
2022/08/26 03:43:41;;;;;;;25.70;23.00;;;23.90;86.60;;;;;;5075362;28;20520;-68
2022/08/26 03:46:09;;;;;;;25.20;22.90;;;23.80;87.20;;;;;;5075485;28;20449;-68
2022/08/26 03:48:36;;;;;;;25.60;23.00;;;23.80;87.60;;;;;;5075231;28;20520;-68
2022/08/26 03:51:10;;;;;;;28.00;23.83;;;23.80;87.70;;;;;;5075165;28;20445;-68
2022/08/26 03:53:37;;;;;;;24.40;21.67;;;23.80;87.90;;;;;;5075033;28;20960;-68
2022/08/26 03:56:05;;;;;;;24.40;21.87;;;23.70;87.90;;;;;;5075160;28;20829;-68
2022/08/26 03:58:32;;;;;;;23.73;21.50;;;23.70;88.10;;;;;;5075039;28;20452;-68
2022/08/26 04:00:59;;;;;;;23.03;20.70;;;23.60;88.30;;;;;;5074793;28;20453;-68
2022/08/26 04:06:13;;;;;;;21.13;18.53;;;23.70;88.30;;;;;;5075330;28;20409;-68
2022/08/26 04:08:39;;;;;;;21.77;19.47;;;23.70;88.30;;;;;;5074918;28;20453;-68
2022/08/26 04:11:06;;;;;;;21.47;19.20;;;23.60;88.40;;;;;;5075026;28;20452;-68
2022/08/26 04:13:34;;;;;;;22.87;19.60;;;23.60;88.70;;;;;;5074851;28;20472;-68
2022/08/26 04:16:01;;;;;;;19.90;17.90;;;23.50;88.60;;;;;;5074727;28;20444;-68
2022/08/26 04:18:30;;;;;;;18.77;16.90;;;23.50;89.00;;;;;;5074548;28;20453;-68
2022/08/26 04:20:57;;;;;;;19.73;17.57;;;23.50;89.30;;;;;;5074565;28;20445;-68
2022/08/26 04:23:25;;;;;;;22.70;17.20;;;23.50;89.30;;;;;;5074029;28;21000;-68
2022/08/26 04:25:52;;;;;;;17.10;15.47;;;23.40;89.20;;;;;;5074110;28;20449;-68
2022/08/26 04:28:21;;;;;;;17.23;15.60;;;23.40;89.10;;;;;;5073935;28;20475;-68
2022/08/26 04:30:48;;;;;;;16.20;14.60;;;23.40;89.90;;;;;;5074083;28;20816;-68
2022/08/26 04:33:15;;;;;;;19.33;15.07;;;23.40;89.90;;;;;;5073669;28;20469;-68
2022/08/26 04:35:42;;;;;;;15.37;13.87;;;23.30;89.80;;;;;;5074364;28;20456;-68
2022/08/26 04:38:09;;;;;;;17.53;14.47;;;23.40;90.00;;;;;;5074258;28;20453;-68
2022/08/26 04:40:42;;;;;;;20.37;13.70;;;23.30;90.00;;;;;;5074306;28;20476;-67
2022/08/26 04:43:09;;;;;;;14.20;12.77;;;23.30;90.10;;;;;;5074288;28;20481;-68
2022/08/26 04:45:36;;;;;;;19.90;13.37;;;23.30;90.00;;;;;;5074492;28;20445;-68
2022/08/26 04:48:03;;;;;;;15.07;12.27;;;23.30;90.00;;;;;;5074446;28;20453;-67
2022/08/26 04:50:31;;;;;;;13.70;12.37;;;23.30;90.30;;;;;;5074391;28;20449;-68
2022/08/26 04:52:58;;;;;;;15.40;12.20;;;23.30;89.80;;;;;;5074163;28;20472;-68
2022/08/26 04:55:25;;;;;;;11.97;10.83;;;23.30;90.00;;;;;;5074309;28;20444;-68
2022/08/26 04:57:53;;;;;;;14.43;11.90;;;23.30;90.10;;;;;;5074400;28;20937;-68
2022/08/26 05:00:20;;;;;;;14.10;11.20;;;23.30;90.00;;;;;;5074651;28;20453;-68
2022/08/26 05:02:47;;;;;;;11.57;10.43;;;23.30;90.00;;;;;;5073892;28;20469;-69
2022/08/26 05:05:14;;;;;;;12.93;10.00;;;23.30;90.10;;;;;;5074238;28;20451;-69
2022/08/26 05:07:41;;;;;;;11.33;10.17;;;23.30;90.00;;;;;;5074188;28;20459;-69
2022/08/26 05:10:10;;;;;;;12.90;10.17;;;23.30;90.10;;;;;;5073968;28;20445;-69
2022/08/26 05:12:36;;;;;;;9.10;8.37;;;23.30;90.00;;;;;;5074026;28;20469;-69
2022/08/26 05:15:06;;;;;;;11.07;10.00;;;23.30;89.70;;;;;;5073910;28;20453;-69
2022/08/26 05:17:33;;;;;;;12.70;9.43;;;23.40;89.80;;;;;;5074045;28;20452;-68
2022/08/26 05:20:00;;;;;;;12.10;9.37;;;23.30;89.70;;;;;;5074136;28;20455;-68
2022/08/26 05:22:26;;;;;;;11.53;8.97;;;23.40;89.80;;;;;;5073689;28;20908;-68
2022/08/26 05:24:53;;;;;;;9.43;8.53;;;23.40;89.60;;;;;;5073451;28;20862;-69
2022/08/26 05:27:20;;;;;;;14.80;8.67;;;23.40;89.50;;;;;;5073861;28;20453;-69
2022/08/26 05:29:47;;;;;;;13.40;8.47;;;23.50;89.10;;;;;;5073651;28;20456;-68
2022/08/26 05:32:15;;;;;;;10.00;7.63;;;23.60;89.10;;;;;;5073238;28;20999;-68
2022/08/26 05:34:41;;;;;;;9.30;7.80;;;23.70;89.70;;;;;;5073435;28;20456;-68
2022/08/26 05:37:08;;;;;;;9.93;8.03;;;23.70;88.90;;;;;;5073493;28;20441;-69
2022/08/26 05:39:35;;;;;;;10.67;7.33;;;23.70;88.20;;;;;;5073538;28;20452;-69
2022/08/26 05:42:02;;;;;;;13.07;8.43;;;23.70;88.10;;;;;;5073414;28;20473;-69
2022/08/26 05:44:29;;;;;;;11.30;7.70;;;23.70;87.80;;;;;;5072598;28;20483;-68
2022/08/26 05:46:56;;;;;;;10.63;8.10;;;23.80;87.40;;;;;;5073479;28;20452;-68
2022/08/26 05:49:24;;;;;;;8.40;7.57;;;23.80;87.30;;;;;;5072980;28;20453;-68
2022/08/26 05:51:52;;;;;;;9.90;7.63;;;23.80;87.50;;;;;;5073016;28;20457;-69
2022/08/26 05:54:19;;;;;;;12.43;7.70;;;23.80;87.20;;;;;;5072927;28;20449;-68
2022/08/26 05:56:45;;;;;;;7.83;7.03;;;23.80;87.40;;;;;;5073187;28;20955;-69
2022/08/26 05:59:14;;;;;;;10.37;6.27;;;23.90;87.60;;;;;;5073038;28;20452;-69
2022/08/26 06:01:42;;;;;;;10.73;7.33;;;23.90;87.00;;;;;;5073195;28;20444;-69
2022/08/26 06:04:09;;;;;;;8.90;6.90;;;24.00;87.10;;;;;;5073508;28;20522;-69
2022/08/26 06:06:40;;;;;;;13.83;7.30;;;24.10;86.60;;;;;;5073709;28;20449;-69
2022/08/26 06:09:09;;;;;;;9.60;6.97;;;24.10;86.10;;;;;;5073187;28;20898;-69
2022/08/26 06:11:36;;;;;;;10.20;7.20;;;24.10;85.80;;;;;;5073317;28;20502;-69
2022/08/26 06:14:05;;;;;;;12.13;7.50;;;24.10;86.00;;;;;;5072915;28;20477;-69
2022/08/26 06:16:33;;;;;;;7.40;6.50;;;24.10;86.10;;;;;;5073280;28;20472;-69
2022/08/26 06:19:03;;;;;;;8.50;7.70;;;24.10;85.40;;;;;;5072847;28;20950;-69
2022/08/26 06:21:32;;;;;;;8.00;7.10;;;24.10;85.80;;;;;;5073235;28;20437;-69
2022/08/26 06:26:50;;;;;;;10.17;6.67;;;24.10;85.10;;;;;;5053051;28;20406;-68
2022/08/26 06:29:17;;;;;;;13.33;7.67;;;24.10;85.40;;;;;;5052673;28;20450;-68
2022/08/26 06:31:44;;;;;;;8.13;6.90;;;24.10;85.60;;;;;;5052664;28;20815;-69
2022/08/26 06:34:11;;;;;;;9.60;6.57;;;24.10;85.60;;;;;;5053124;28;20445;-69
2022/08/26 06:36:41;;;;;;;9.53;6.10;;;24.20;85.60;;;;;;5052989;28;20438;-69
2022/08/26 06:39:12;;;;;;;8.07;6.90;;;24.30;85.30;;;;;;5052466;28;20446;-69
2022/08/26 06:41:42;;;;;;;8.40;6.13;;;24.30;84.90;;;;;;5053132;28;20454;-69
2022/08/26 06:44:09;;;;;;;9.80;7.40;;;24.30;84.60;;;;;;5052688;28;21020;-69
2022/08/26 06:46:36;;;;;;;9.97;7.53;;;24.40;83.90;;;;;;5053013;28;20468;-69
2022/08/26 06:49:03;;;;;;;11.40;8.23;;;24.40;83.30;;;;;;5052931;28;20442;-69
2022/08/26 06:51:32;;;;;;;10.20;8.00;;;24.40;83.20;;;;;;5053569;28;20453;-68
2022/08/26 06:54:00;;;;;;;8.27;7.40;;;24.50;83.20;;;;;;5052867;28;20557;-69
2022/08/26 06:56:33;;;;;;;12.47;7.63;;;24.40;83.10;;;;;;5054543;28;20449;-69
2022/08/26 06:59:00;;;;;;;13.10;7.90;;;24.30;83.00;;;;;;5056438;28;20434;-69
2022/08/26 07:01:29;;;;;;;9.30;6.70;;;24.30;83.30;;;;;;5056200;28;20946;-69
2022/08/26 07:03:58;;;;;;;10.00;6.13;;;24.30;83.70;;;;;;5056097;28;20481;-69
2022/08/26 07:06:26;;;;;;;8.20;7.40;;;24.30;84.10;;;;;;5056149;28;20969;-69
2022/08/26 07:09:00;;;;;;;12.57;7.77;;;24.20;84.00;;;;;;5056139;28;20454;-69
2022/08/26 07:11:28;;;;;;;12.43;7.37;;;24.20;84.70;;;;;;5056156;28;20434;-69
2022/08/26 07:13:55;;;;;;;8.87;6.30;;;24.20;83.70;;;;;;5056263;28;20462;-69
2022/08/26 07:16:22;;;;;;;8.00;6.10;;;24.20;83.80;;;;;;5057764;28;20930;-65
2022/08/26 07:18:51;;;;;;;7.03;6.30;;;24.20;84.20;;;;;;5063206;28;20449;-64
2022/08/26 07:21:18;;;;;;;10.37;7.37;;;24.10;84.50;;;;;;5063545;28;20477;-64
2022/08/26 07:23:46;;;;;;;9.30;5.90;;;24.10;84.60;;;;;;5062782;28;20478;-65
2022/08/26 07:26:16;;;;;;;7.57;5.60;;;24.10;84.60;;;;;;5062848;28;20444;-64
2022/08/26 07:28:45;;;;;;;6.90;6.13;;;24.10;84.70;;;;;;5062296;28;20503;-64
2022/08/26 07:31:14;;;;;;;11.27;5.17;;;24.10;84.50;;;;;;5060093;28;20488;-65
2022/08/26 07:33:42;;;;;;;6.90;5.60;;;24.10;84.50;;;;;;5060908;28;20465;-64
2022/08/26 07:36:11;;;;;;;10.80;5.73;;;24.10;84.40;;;;;;5061062;28;20530;-64
2022/08/26 07:38:39;;;;;;;7.70;5.00;;;24.10;84.40;;;;;;5060705;28;20520;-64
2022/08/26 07:41:07;;;;;;;12.37;5.53;;;24.10;84.60;;;;;;5059590;28;20433;-64
2022/08/26 07:43:35;;;;;;;11.50;5.37;;;24.10;84.50;;;;;;5057049;28;20523;-64
2022/08/26 07:46:04;;;;;;;7.77;5.30;;;24.10;84.30;;;;;;5056283;28;20541;-64
2022/08/26 07:48:31;;;;;;;12.20;5.20;;;24.10;84.60;;;;;;5058602;28;20446;-64
2022/08/26 07:50:58;;;;;;;6.13;5.20;;;24.00;84.90;;;;;;5059432;28;20977;-64
2022/08/26 07:53:25;;;;;;;9.27;4.80;;;24.10;84.70;;;;;;5059856;28;20475;-64
2022/08/26 07:55:52;;;;;;;10.50;4.70;;;24.10;85.00;;;;;;5059425;28;20464;-64
2022/08/26 07:58:19;;;;;;;7.90;5.20;;;24.10;85.00;;;;;;5058859;28;20549;-64
2022/08/26 08:00:47;;;;;;;8.80;5.63;;;24.10;85.10;;;;;;5058727;28;20442;-65
2022/08/26 08:03:15;;;;;;;9.07;5.50;;;24.20;85.20;;;;;;5057876;28;20524;-64
2022/08/26 08:05:42;;;;;;;5.77;4.50;;;24.20;84.10;;;;;;5057488;28;20852;-64
2022/08/26 08:08:10;;;;;;;5.70;4.50;;;24.30;83.80;;;;;;5056909;28;20476;-64
2022/08/26 08:10:38;;;;;;;10.80;6.50;;;24.30;83.60;;;;;;5057128;28;20434;-64
2022/08/26 08:13:07;;;;;;;9.43;4.87;;;24.40;83.80;;;;;;5056723;28;20474;-64
2022/08/26 08:15:34;;;;;;;9.30;5.23;;;24.30;83.10;;;;;;5057278;28;20463;-64
2022/08/26 08:18:01;;;;;;;8.23;5.30;;;24.30;83.00;;;;;;5057289;28;20450;-64
2022/08/26 08:20:30;;;;;;;11.63;5.90;;;24.30;83.10;;;;;;5057196;28;20472;-64
2022/08/26 08:22:57;;;;;;;12.60;5.43;;;24.40;82.90;;;;;;5056665;28;20484;-64
2022/08/26 08:25:25;;;;;;;15.40;5.90;;;24.40;82.80;;;;;;5057452;28;20533;-64
2022/08/26 08:27:51;;;;;;;6.00;4.70;;;24.40;82.60;;;;;;5056581;28;20419;-64
2022/08/26 08:30:21;;;;;;;7.53;5.20;;;24.50;82.60;;;;;;5056644;28;20454;-64
2022/08/26 08:32:48;;;;;;;9.70;5.80;;;24.60;82.40;;;;;;5056780;28;20476;-64
2022/08/26 08:35:19;;;;;;;9.43;5.17;;;24.60;81.90;;;;;;5056977;28;20446;-64
2022/08/26 08:37:50;;;;;;;12.70;4.77;;;24.60;81.60;;;;;;5055939;28;20458;-64
2022/08/26 08:40:17;;;;;;;12.30;4.87;;;24.60;81.60;;;;;;5057025;28;20521;-64
2022/08/26 08:42:47;;;;;;;6.50;4.63;;;24.70;82.10;;;;;;5057665;28;20466;-65
2022/08/26 08:45:20;;;;;;;8.13;4.50;;;24.70;81.80;;;;;;5056813;28;20485;-64
2022/08/26 08:47:51;;;;;;;9.33;4.73;;;24.80;81.20;;;;;;5057360;28;20434;-64
2022/08/26 08:50:24;;;;;;;5.87;3.70;;;24.80;81.00;;;;;;5056778;28;20441;-64
2022/08/26 08:53:00;;;;;;;8.10;4.40;;;24.90;80.50;;;;;;5056894;28;20465;-64
2022/08/26 08:55:33;;;;;;;7.10;4.90;;;25.00;79.70;;;;;;5057227;28;20434;-64
2022/08/26 08:58:05;;;;;;;6.03;4.37;;;25.10;79.10;;;;;;5056941;28;20434;-64
2022/08/26 09:00:37;;;;;;;7.40;5.20;;;25.10;77.70;;;;;;5058086;28;20484;-64
2022/08/26 09:03:12;;;;;;;6.70;4.47;;;25.30;77.10;;;;;;5057682;28;20466;-65
2022/08/26 09:05:43;;;;;;;5.13;3.83;;;25.30;76.10;;;;;;5057896;28;20492;-64
2022/08/26 09:08:15;;;;;;;4.83;3.10;;;25.50;75.80;;;;;;5057175;28;20472;-64
2022/08/26 09:10:47;;;;;;;7.90;3.20;;;25.60;75.40;;;;;;5058073;28;20448;-65
2022/08/26 09:13:17;;;;;;;6.97;3.40;;;25.70;74.90;;;;;;5058031;28;20557;-65
2022/08/26 09:15:53;;;;;;;5.37;3.17;;;25.90;74.40;;;;;;5057994;28;20863;-64
2022/08/26 09:18:29;;;;;;;4.53;2.70;;;26.00;73.20;;;;;;5059118;28;20442;-65
2022/08/26 09:21:02;;;;;;;7.33;2.77;;;26.00;72.90;;;;;;5057548;28;20425;-64
2022/08/26 09:23:31;;;;;;;9.23;3.97;;;26.00;72.50;;;;;;5057592;28;21036;-64
2022/08/26 09:26:01;;;;;;;5.73;3.07;;;25.90;72.30;;;;;;5057217;28;20489;-64
2022/08/26 09:28:30;;;;;;;6.83;3.30;;;25.90;72.70;;;;;;5057052;28;20446;-65
2022/08/26 09:31:10;;;;;;;4.80;3.23;;;25.90;74.00;;;;;;5057586;28;20457;-64
2022/08/26 09:33:38;;;;;;;5.93;3.30;;;25.80;73.70;;;;;;5056671;28;20480;-64
2022/08/26 09:36:21;;;;;;;6.93;3.43;;;25.80;73.60;;;;;;5056908;28;20461;-64
2022/08/26 09:38:50;;;;;;;3.77;3.10;;;25.90;73.80;;;;;;5057055;28;20425;-64
2022/08/26 09:41:25;;;;;;;5.10;2.97;;;25.90;72.80;;;;;;5056461;28;20430;-65
2022/08/26 09:44:11;;;;;;;7.80;3.20;;;26.00;72.60;;;;;;5056803;28;20476;-65
2022/08/26 09:46:42;;;;;;;9.67;3.30;;;26.10;72.40;;;;;;5057477;28;20429;-64
2022/08/26 09:49:25;;;;;;;10.53;3.23;;;26.10;72.40;;;;;;5058473;28;20426;-64
2022/08/26 09:52:06;;;;;;;12.30;3.10;;;26.20;72.30;;;;;;5057423;28;20430;-64
2022/08/26 09:54:35;;;;;;;25.87;4.20;;;26.20;72.00;;;;;;5057043;28;20434;-64
2022/08/26 09:57:15;;;;;;;11.93;2.70;;;26.20;71.90;;;;;;5057778;28;20442;-64
2022/08/26 09:59:42;;;;;;;9.03;2.30;;;26.10;71.70;;;;;;5057551;28;20460;-64
2022/08/26 10:02:24;;;;;;;6.10;2.77;;;26.20;71.50;;;;;;5057315;28;20462;-65
2022/08/26 10:04:53;;;;;;;4.07;3.07;;;26.20;71.90;;;;;;5059873;28;20473;-65
2022/08/26 10:07:39;;;;;;;8.43;3.43;;;26.20;72.00;;;;;;5056802;28;20434;-65
2022/08/26 10:10:12;;;;;;;5.90;3.20;;;26.20;71.20;;;;;;5057105;28;20516;-64
2022/08/26 10:12:47;;;;;;;6.10;2.97;;;26.20;71.50;;;;;;5056781;28;20488;-64
2022/08/26 10:15:15;;;;;;;12.10;3.80;;;26.10;70.70;;;;;;5056440;28;20429;-64
2022/08/26 10:17:49;;;;;;;7.97;2.80;;;26.20;70.60;;;;;;5056458;28;20434;-64
2022/08/26 10:20:21;;;;;;;4.17;2.90;;;26.10;70.20;;;;;;5056368;28;20445;-65
2022/08/26 10:22:55;;;;;;;6.53;3.13;;;26.20;71.00;;;;;;5056269;28;20476;-65
2022/08/26 10:25:27;;;;;;;3.60;2.73;;;26.10;71.30;;;;;;5056094;28;20480;-64
2022/08/26 10:28:02;;;;;;;9.13;2.97;;;26.00;71.80;;;;;;5056550;28;20801;-64
2022/08/26 10:30:33;;;;;;;7.37;2.53;;;25.90;72.80;;;;;;5056926;28;20767;-64
2022/08/26 10:33:04;;;;;;;6.30;3.47;;;25.90;73.20;;;;;;5060375;28;20473;-65
2022/08/26 10:35:33;;;;;;;5.03;3.30;;;25.80;73.70;;;;;;5059910;28;20800;-64
2022/08/26 10:38:04;;;;;;;7.97;3.13;;;25.70;73.80;;;;;;5059300;28;20533;-65
2022/08/26 10:40:42;;;;;;;4.87;2.77;;;25.60;74.30;;;;;;5059943;28;20438;-65
2022/08/26 10:43:14;;;;;;;6.53;3.40;;;25.60;74.90;;;;;;5058990;28;20845;-64
2022/08/26 10:45:47;;;;;;;9.00;3.60;;;25.60;75.00;;;;;;5059132;28;20465;-64
2022/08/26 10:48:18;;;;;;;8.60;3.03;;;25.60;74.50;;;;;;5059016;28;20496;-65
2022/08/26 10:50:47;;;;;;;5.80;3.10;;;25.50;74.90;;;;;;5058689;28;20434;-64
2022/08/26 10:53:17;;;;;;;6.20;2.80;;;25.40;75.20;;;;;;5059009;28;20475;-64
2022/08/26 10:55:57;;;;;;;5.40;2.97;;;25.50;75.30;;;;;;5058361;28;20946;-64
2022/08/26 10:58:38;;;;;;;11.00;3.40;;;25.50;75.90;;;;;;5059192;28;20434;-64
2022/08/26 11:04:05;;;;;;;4.13;2.43;;;25.60;76.00;;;;;;5059055;28;20928;-64
2022/08/26 11:06:32;;;;;;;6.73;2.90;;;25.60;75.80;;;;;;5058793;28;20469;-64
2022/08/26 11:09:01;;;;;;;6.07;3.27;;;25.70;75.70;;;;;;5059490;28;20530;-64
2022/08/26 11:11:49;;;;;;;6.33;3.50;;;25.80;74.20;;;;;;5059175;28;20452;-64
2022/08/26 11:14:36;;;;;;;15.20;3.73;;;25.90;74.20;;;;;;5057506;28;20918;-64
2022/08/26 11:17:03;;;;;;;6.93;2.90;;;25.90;73.90;;;;;;5056135;28;20859;-64
2022/08/26 11:19:59;;;;;;;8.63;2.90;;;25.90;74.00;;;;;;5057904;28;20446;-64
2022/08/26 11:22:29;;;;;;;8.10;2.50;;;25.90;73.30;;;;;;5058302;28;20470;-64
2022/08/26 11:25:10;;;;;;;7.53;3.27;;;26.00;73.70;;;;;;5057750;28;21005;-64
2022/08/26 11:28:04;;;;;;;7.40;3.30;;;26.00;73.40;;;;;;5057675;28;20915;-64
2022/08/26 11:30:48;;;;;;;6.30;2.50;;;25.90;72.60;;;;;;5059178;28;20949;-64
2022/08/26 11:33:46;;;;;;;6.37;3.27;;;25.80;73.30;;;;;;5057621;28;20556;-64
2022/08/26 11:36:39;;;;;;;7.93;2.77;;;25.70;73.60;;;;;;5057942;28;20430;-65
2022/08/26 11:39:17;;;;;;;7.50;3.13;;;25.70;74.30;;;;;;5058268;28;20449;-64
2022/08/26 11:41:49;;;;;;;7.20;3.13;;;25.70;74.30;;;;;;5056980;28;20430;-64
2022/08/26 11:44:20;;;;;;;5.80;2.97;;;25.70;74.60;;;;;;5057066;28;20422;-64
2022/08/26 11:46:55;;;;;;;8.43;3.07;;;25.70;74.30;;;;;;5057252;28;20481;-64
2022/08/26 11:49:23;;;;;;;10.13;3.40;;;25.70;73.80;;;;;;5057949;28;20446;-64
2022/08/26 11:51:50;;;;;;;6.00;3.17;;;25.70;73.50;;;;;;5057987;28;20819;-64
2022/08/26 11:54:19;;;;;;;10.00;2.87;;;25.70;73.70;;;;;;5074646;28;20468;-64
2022/08/26 11:56:49;;;;;;;7.30;2.60;;;25.70;73.80;;;;;;5077790;28;20926;-64
2022/08/26 11:59:24;;;;;;;5.07;2.40;;;25.70;73.90;;;;;;5078049;28;20527;-64
2022/08/26 12:01:54;;;;;;;7.60;2.40;;;25.60;73.80;;;;;;5078665;28;20909;-65
2022/08/26 12:04:27;;;;;;;8.70;2.90;;;25.60;74.20;;;;;;5078811;28;20445;-64
2022/08/26 12:06:55;;;;;;;5.10;2.90;;;25.60;73.80;;;;;;5078716;28;20465;-64
2022/08/26 12:09:24;;;;;;;5.37;2.33;;;25.60;73.90;;;;;;5077520;28;20937;-64
2022/08/26 12:11:52;;;;;;;4.27;2.37;;;25.60;73.50;;;;;;5079132;28;20452;-64
2022/08/26 12:14:23;;;;;;;7.17;2.57;;;25.70;73.90;;;;;;5079259;28;20456;-65
2022/08/26 12:16:50;;;;;;;5.03;2.23;;;25.70;73.20;;;;;;5079298;28;20520;-64
2022/08/26 12:19:25;;;;;;;5.60;2.83;;;25.70;73.40;;;;;;5077950;28;20429;-64
2022/08/26 12:21:58;;;;;;;9.97;2.70;;;25.80;72.90;;;;;;5078864;28;20452;-65
2022/08/26 12:24:25;;;;;;;9.37;2.50;;;25.80;73.00;;;;;;5078536;28;20514;-64
2022/08/26 12:27:13;;;;;;;6.10;2.53;;;25.90;72.30;;;;;;5078856;28;20480;-64
2022/08/26 12:29:41;;;;;;;6.60;2.70;;;25.80;71.90;;;;;;5077972;28;20429;-64
2022/08/26 12:32:11;;;;;;;5.33;2.60;;;25.80;71.60;;;;;;5077926;28;20461;-64
2022/08/26 12:34:39;;;;;;;6.33;2.60;;;25.60;71.50;;;;;;5077682;28;20897;-64
2022/08/26 12:37:06;;;;;;;5.20;2.67;;;25.60;72.10;;;;;;5078350;28;20448;-64
2022/08/26 12:39:36;;;;;;;4.10;2.20;;;25.40;72.50;;;;;;5078503;28;20441;-64
2022/08/26 12:42:05;;;;;;;6.40;2.40;;;25.40;73.10;;;;;;5078035;28;20468;-64
2022/08/26 12:44:38;;;;;;;6.57;2.30;;;25.40;73.30;;;;;;5077782;28;20811;-64
2022/08/26 12:47:10;;;;;;;6.87;2.70;;;25.50;73.50;;;;;;5077410;28;20508;-64
2022/08/26 12:49:38;;;;;;;4.33;2.60;;;25.50;73.20;;;;;;5077179;28;20425;-64
2022/08/26 12:52:06;;;;;;;7.10;3.90;;;25.40;73.20;;;;;;5077222;28;21011;-64
2022/08/26 12:57:13;;;;;;;5.93;3.20;;;25.30;74.00;;;;;;5056182;28;20432;-65
2022/08/26 12:59:41;;;;;;;8.50;2.50;;;25.20;74.30;;;;;;5076220;28;20802;-64
2022/08/26 13:02:09;;;;;;;10.00;3.00;;;25.30;74.30;;;;;;5076043;28;20464;-65